Terminal Aerodrome Forecast
Issued by NWS Wilmington, NC

Home | Current Version | Previous Version | Text Only | Print | Product List | Glossary On
Versions: 1 2 3 4 5 6 7 8 9 10 11 12 13 14 15 16 17
000
FTUS42 KILM 231730
TAFFLO
TAF
KFLO 231730Z 2318/2418 17012G25KT P6SM -SHRA OVC030
     FM240000 20010G16KT 5SM -SHRA VCTS BKN020CB
      TEMPO 2400/2403 20020G30KT 1SM +TSRA BKN015CB
     FM240300 21012KT 6SM -SHRA BKN016
     FM240800 24008KT P6SM BKN012
     FM241000 27008KT P6SM SCT020=

USA.gov is the U.S. government's official web portal to all federal, state and local government web resources and services.